sensor_id;sensor_type;location;lat;lon;timestamp;pressure;altitude;pressure_sealevel;temperature;humidity
42951;BME280;28592;51.064;17.192;2022-09-13T00:01:02;100080.09;;;11.42;100.00
42951;BME280;28592;51.064;17.192;2022-09-13T00:03:48;100080.94;;;11.42;100.00
42951;BME280;28592;51.064;17.192;2022-09-13T00:06:33;100078.43;;;11.41;100.00
42951;BME280;28592;51.064;17.192;2022-09-13T00:09:22;100074.67;;;11.34;100.00
42951;BME280;28592;51.064;17.192;2022-09-13T00:12:10;100074.00;;;11.32;100.00
42951;BME280;28592;51.064;17.192;2022-09-13T00:14:56;100072.06;;;11.24;100.00
42951;BME280;28592;51.064;17.192;2022-09-13T00:17:42;100073.88;;;11.24;100.00
42951;BME280;28592;51.064;17.192;2022-09-13T00:20:30;100067.73;;;11.23;100.00
42951;BME280;28592;51.064;17.192;2022-09-13T00:23:19;100067.58;;;11.25;100.00
42951;BME280;28592;51.064;17.192;2022-09-13T00:26:13;100067.20;;;11.20;100.00
42951;BME280;28592;51.064;17.192;2022-09-13T00:28:59;100063.14;;;11.16;100.00
42951;BME280;28592;51.064;17.192;2022-09-13T00:31:44;100064.13;;;11.15;100.00
42951;BME280;28592;51.064;17.192;2022-09-13T00:34:30;100053.67;;;11.13;100.00
42951;BME280;28592;51.064;17.192;2022-09-13T00:37:15;100054.52;;;11.14;100.00
42951;BME280;28592;51.064;17.192;2022-09-13T00:40:05;100058.13;;;11.13;100.00
42951;BME280;28592;51.064;17.192;2022-09-13T00:42:51;100054.80;;;11.11;100.00
42951;BME280;28592;51.064;17.192;2022-09-13T00:45:40;100046.15;;;11.09;100.00
42951;BME280;28592;51.064;17.192;2022-09-13T00:48:28;100051.74;;;11.06;100.00
42951;BME280;28592;51.064;17.192;2022-09-13T00:51:14;100053.69;;;11.04;100.00
42951;BME280;28592;51.064;17.192;2022-09-13T00:54:02;100046.73;;;11.03;100.00
42951;BME280;28592;51.064;17.192;2022-09-13T00:56:54;100038.48;;;11.06;100.00
42951;BME280;28592;51.064;17.192;2022-09-13T00:59:50;100041.28;;;11.04;100.00
42951;BME280;28592;51.064;17.192;2022-09-13T01:02:45;100039.59;;;11.03;100.00
42951;BME280;28592;51.064;17.192;2022-09-13T01:08:31;100045.86;;;11.12;100.00
42951;BME280;28592;51.064;17.192;2022-09-13T01:14:21;100044.48;;;11.08;100.00
42951;BME280;28592;51.064;17.192;2022-09-13T01:17:08;100043.35;;;11.10;100.00
42951;BME280;28592;51.064;17.192;2022-09-13T01:19:54;100037.20;;;11.10;100.00
42951;BME280;28592;51.064;17.192;2022-09-13T01:22:56;100040.56;;;11.12;100.00
42951;BME280;28592;51.064;17.192;2022-09-13T01:25:51;100030.94;;;11.11;100.00
42951;BME280;28592;51.064;17.192;2022-09-13T01:43:48;100029.64;;;11.24;100.00
42951;BME280;28592;51.064;17.192;2022-09-13T01:49:40;100016.90;;;11.28;100.00
42951;BME280;28592;51.064;17.192;2022-09-13T01:52:37;100010.92;;;11.26;100.00
42951;BME280;28592;51.064;17.192;2022-09-13T02:01:23;99995.30;;;11.23;100.00
42951;BME280;28592;51.064;17.192;2022-09-13T02:04:21;99994.42;;;11.32;100.00
42951;BME280;28592;51.064;17.192;2022-09-13T02:07:16;99994.42;;;11.32;100.00
42951;BME280;28592;51.064;17.192;2022-09-13T02:10:11;99988.30;;;11.22;100.00
42951;BME280;28592;51.064;17.192;2022-09-13T02:12:58;99980.13;;;11.15;100.00
42951;BME280;28592;51.064;17.192;2022-09-13T02:15:49;99976.08;;;11.11;100.00
42951;BME280;28592;51.064;17.192;2022-09-13T02:18:40;99967.59;;;11.08;100.00
42951;BME280;28592;51.064;17.192;2022-09-13T02:21:33;99965.61;;;11.10;100.00
42951;BME280;28592;51.064;17.192;2022-09-13T02:24:29;99964.66;;;11.11;100.00
42951;BME280;28592;51.064;17.192;2022-09-13T02:27:21;99957.66;;;11.10;100.00
42951;BME280;28592;51.064;17.192;2022-09-13T02:30:13;99959.64;;;11.08;100.00
42951;BME280;28592;51.064;17.192;2022-09-13T02:33:11;99957.95;;;11.07;100.00
42951;BME280;28592;51.064;17.192;2022-09-13T02:36:06;99958.24;;;11.04;100.00
42951;BME280;28592;51.064;17.192;2022-09-13T02:38:59;99957.31;;;10.95;100.00
42951;BME280;28592;51.064;17.192;2022-09-13T02:41:57;99956.77;;;10.92;100.00
42951;BME280;28592;51.064;17.192;2022-09-13T02:44:53;99950.76;;;10.90;100.00
42951;BME280;28592;51.064;17.192;2022-09-13T02:47:53;99946.45;;;10.89;100.00
42951;BME280;28592;51.064;17.192;2022-09-13T02:53:57;99946.01;;;10.93;100.00
42951;BME280;28592;51.064;17.192;2022-09-13T02:56:55;99944.88;;;10.96;100.00
42951;BME280;28592;51.064;17.192;2022-09-13T02:59:47;99938.98;;;11.02;100.00
42951;BME280;28592;51.064;17.192;2022-09-13T03:02:38;99941.93;;;10.99;100.00
42951;BME280;28592;51.064;17.192;2022-09-13T03:05:30;99935.81;;;10.98;100.00
42951;BME280;28592;51.064;17.192;2022-09-13T03:08:20;99931.33;;;10.99;100.00
42951;BME280;28592;51.064;17.192;2022-09-13T03:17:23;99910.12;;;10.99;100.00
42951;BME280;28592;51.064;17.192;2022-09-13T03:20:23;99905.92;;;11.06;100.00
42951;BME280;28592;51.064;17.192;2022-09-13T03:26:16;99901.98;;;11.10;100.00
42951;BME280;28592;51.064;17.192;2022-09-13T03:32:15;99898.55;;;11.00;100.00
42951;BME280;28592;51.064;17.192;2022-09-13T03:35:14;99896.05;;;10.98;100.00
42951;BME280;28592;51.064;17.192;2022-09-13T03:38:07;99896.20;;;10.97;100.00
42951;BME280;28592;51.064;17.192;2022-09-13T03:41:08;99894.66;;;10.94;100.00
42951;BME280;28592;51.064;17.192;2022-09-13T03:44:04;99882.09;;;10.96;100.00
42951;BME280;28592;51.064;17.192;2022-09-13T03:46:59;99879.59;;;10.95;100.00
42951;BME280;28592;51.064;17.192;2022-09-13T03:49:50;99874.30;;;10.95;100.00
42951;BME280;28592;51.064;17.192;2022-09-13T03:52:42;99873.55;;;11.02;100.00
42951;BME280;28592;51.064;17.192;2022-09-13T03:55:29;99870.06;;;11.02;100.00
42951;BME280;28592;51.064;17.192;2022-09-13T03:58:18;99873.41;;;11.04;100.00
42951;BME280;28592;51.064;17.192;2022-09-13T04:01:17;99881.76;;;11.09;100.00
42951;BME280;28592;51.064;17.192;2022-09-13T04:04:05;99876.45;;;11.09;100.00
42951;BME280;28592;51.064;17.192;2022-09-13T04:06:56;99876.45;;;11.09;100.00
42951;BME280;28592;51.064;17.192;2022-09-13T04:09:42;99875.77;;;11.07;100.00
42951;BME280;28592;51.064;17.192;2022-09-13T04:12:27;99884.11;;;11.12;100.00
42951;BME280;28592;51.064;17.192;2022-09-13T04:15:15;99879.81;;;11.11;100.00
42951;BME280;28592;51.064;17.192;2022-09-13T04:18:01;99883.86;;;11.05;100.00
42951;BME280;28592;51.064;17.192;2022-09-13T04:20:55;99872.70;;;11.02;100.00
42951;BME280;28592;51.064;17.192;2022-09-13T04:23:48;99873.11;;;11.07;100.00
42951;BME280;28592;51.064;17.192;2022-09-13T04:26:37;99882.31;;;11.12;100.00
42951;BME280;28592;51.064;17.192;2022-09-13T04:29:24;99880.62;;;11.11;100.00
42951;BME280;28592;51.064;17.192;2022-09-13T04:32:10;99881.06;;;11.07;100.00
42951;BME280;28592;51.064;17.192;2022-09-13T04:34:55;99872.30;;;11.06;100.00
42951;BME280;28592;51.064;17.192;2022-09-13T04:37:41;99878.31;;;10.99;100.00
42951;BME280;28592;51.064;17.192;2022-09-13T04:40:27;99876.50;;;10.99;100.00
42951;BME280;28592;51.064;17.192;2022-09-13T04:43:13;99875.66;;;10.99;100.00
42951;BME280;28592;51.064;17.192;2022-09-13T04:46:07;99881.51;;;11.02;100.00
42951;BME280;28592;51.064;17.192;2022-09-13T04:48:59;99874.40;;;11.03;100.00
42951;BME280;28592;51.064;17.192;2022-09-13T04:51:47;99872.81;;;11.10;100.00
42951;BME280;28592;51.064;17.192;2022-09-13T04:54:33;99875.52;;;11.27;100.00
42951;BME280;28592;51.064;17.192;2022-09-13T04:57:19;99874.61;;;11.36;100.00
42951;BME280;28592;51.064;17.192;2022-09-13T05:00:08;99873.77;;;11.36;100.00
42951;BME280;28592;51.064;17.192;2022-09-13T05:02:55;99873.71;;;11.45;100.00
42951;BME280;28592;51.064;17.192;2022-09-13T05:05:44;99867.98;;;11.67;100.00
42951;BME280;28592;51.064;17.192;2022-09-13T05:08:29;99867.16;;;11.67;100.00
42951;BME280;28592;51.064;17.192;2022-09-13T05:11:16;99874.33;;;11.92;100.00
42951;BME280;28592;51.064;17.192;2022-09-13T05:14:01;99878.56;;;12.02;100.00
42951;BME280;28592;51.064;17.192;2022-09-13T05:16:49;99881.52;;;12.17;100.00
42951;BME280;28592;51.064;17.192;2022-09-13T05:19:34;99876.20;;;12.17;100.00
42951;BME280;28592;51.064;17.192;2022-09-13T05:22:23;99883.71;;;12.47;100.00
42951;BME280;28592;51.064;17.192;2022-09-13T05:25:08;99876.14;;;12.60;100.00
42951;BME280;28592;51.064;17.192;2022-09-13T05:27:54;99874.91;;;12.72;100.00
42951;BME280;28592;51.064;17.192;2022-09-13T05:30:39;99872.09;;;12.82;100.00
42951;BME280;28592;51.064;17.192;2022-09-13T05:33:30;99869.48;;;12.90;100.00
42951;BME280;28592;51.064;17.192;2022-09-13T05:36:16;99881.98;;;12.97;100.00
42951;BME280;28592;51.064;17.192;2022-09-13T05:39:02;99877.67;;;12.96;100.00
42951;BME280;28592;51.064;17.192;2022-09-13T05:41:48;99874.40;;;13.02;100.00
42951;BME280;28592;51.064;17.192;2022-09-13T05:44:33;99872.75;;;13.09;100.00
42951;BME280;28592;51.064;17.192;2022-09-13T05:47:19;99879.76;;;13.18;100.00
42951;BME280;28592;51.064;17.192;2022-09-13T05:50:05;99865.19;;;13.38;100.00
42951;BME280;28592;51.064;17.192;2022-09-13T05:52:54;99870.52;;;13.38;100.00
42951;BME280;28592;51.064;17.192;2022-09-13T05:55:39;99864.75;;;13.59;100.00
42951;BME280;28592;51.064;17.192;2022-09-13T05:58:25;99856.74;;;13.67;100.00
42951;BME280;28592;51.064;17.192;2022-09-13T06:01:16;99853.59;;;13.79;100.00
42951;BME280;28592;51.064;17.192;2022-09-13T06:04:02;99856.45;;;13.94;100.00
42951;BME280;28592;51.064;17.192;2022-09-13T06:06:50;99852.09;;;13.93;100.00
42951;BME280;28592;51.064;17.192;2022-09-13T06:09:36;99847.59;;;14.09;100.00
42951;BME280;28592;51.064;17.192;2022-09-13T06:12:21;99832.95;;;14.30;100.00
42951;BME280;28592;51.064;17.192;2022-09-13T06:15:07;99835.78;;;14.28;100.00
42951;BME280;28592;51.064;17.192;2022-09-13T06:17:55;99832.02;;;14.61;100.00
42951;BME280;28592;51.064;17.192;2022-09-13T06:20:40;99821.48;;;14.76;100.00
42951;BME280;28592;51.064;17.192;2022-09-13T06:23:29;99816.33;;;14.74;100.00
42951;BME280;28592;51.064;17.192;2022-09-13T06:26:21;99820.42;;;14.93;100.00
42951;BME280;28592;51.064;17.192;2022-09-13T06:29:10;99813.02;;;15.03;100.00
42951;BME280;28592;51.064;17.192;2022-09-13T06:31:56;99814.88;;;15.02;100.00
42951;BME280;28592;51.064;17.192;2022-09-13T06:34:41;99809.75;;;15.23;100.00
42951;BME280;28592;51.064;17.192;2022-09-13T06:37:30;99814.09;;;14.86;100.00
42951;BME280;28592;51.064;17.192;2022-09-13T06:40:16;99808.94;;;14.84;100.00
42951;BME280;28592;51.064;17.192;2022-09-13T06:43:01;99813.11;;;14.87;100.00
42951;BME280;28592;51.064;17.192;2022-09-13T06:45:46;99811.86;;;15.05;100.00
42951;BME280;28592;51.064;17.192;2022-09-13T06:48:33;99796.45;;;15.46;100.00
42951;BME280;28592;51.064;17.192;2022-09-13T06:51:21;99795.61;;;15.45;100.00
42951;BME280;28592;51.064;17.192;2022-09-13T06:54:07;99792.66;;;15.40;100.00
42951;BME280;28592;51.064;17.192;2022-09-13T06:56:53;99788.63;;;15.14;100.00
42951;BME280;28592;51.064;17.192;2022-09-13T06:59:39;99794.16;;;15.35;100.00
42951;BME280;28592;51.064;17.192;2022-09-13T07:02:24;99789.83;;;15.34;100.00
42951;BME280;28592;51.064;17.192;2022-09-13T07:05:10;99804.27;;;15.70;100.00
42951;BME280;28592;51.064;17.192;2022-09-13T07:07:55;99797.33;;;15.61;100.00
42951;BME280;28592;51.064;17.192;2022-09-13T07:10:42;99804.68;;;15.59;100.00
42951;BME280;28592;51.064;17.192;2022-09-13T07:13:27;99794.72;;;15.53;100.00
42951;BME280;28592;51.064;17.192;2022-09-13T07:16:13;99789.38;;;15.53;100.00
42951;BME280;28592;51.064;17.192;2022-09-13T07:19:04;99796.31;;;15.62;100.00
42951;BME280;28592;51.064;17.192;2022-09-13T07:21:51;99798.87;;;15.78;100.00
42951;BME280;28592;51.064;17.192;2022-09-13T07:24:40;99798.03;;;15.77;100.00
42951;BME280;28592;51.064;17.192;2022-09-13T07:27:25;99794.39;;;15.93;100.00
42951;BME280;28592;51.064;17.192;2022-09-13T07:30:10;99781.81;;;16.16;100.00
42951;BME280;28592;51.064;17.192;2022-09-13T07:32:56;99784.77;;;16.79;100.00
42951;BME280;28592;51.064;17.192;2022-09-13T07:35:41;99780.45;;;16.78;100.00
42951;BME280;28592;51.064;17.192;2022-09-13T07:38:26;99770.77;;;16.77;100.00
42951;BME280;28592;51.064;17.192;2022-09-13T07:41:18;99784.23;;;16.55;100.00
42951;BME280;28592;51.064;17.192;2022-09-13T07:44:04;99777.92;;;16.91;100.00
42951;BME280;28592;51.064;17.192;2022-09-13T07:46:52;99791.29;;;17.06;100.00
42951;BME280;28592;51.064;17.192;2022-09-13T07:49:40;99789.64;;;17.05;100.00
42951;BME280;28592;51.064;17.192;2022-09-13T07:52:27;99794.95;;;17.40;100.00
42951;BME280;28592;51.064;17.192;2022-09-13T07:55:13;99791.66;;;17.38;100.00
42951;BME280;28592;51.064;17.192;2022-09-13T07:57:58;99788.70;;;17.97;100.00
42951;BME280;28592;51.064;17.192;2022-09-13T08:00:44;99783.41;;;18.03;100.00
42951;BME280;28592;51.064;17.192;2022-09-13T08:03:34;99790.61;;;18.03;100.00
42951;BME280;28592;51.064;17.192;2022-09-13T08:06:21;99788.37;;;18.34;100.00
42951;BME280;28592;51.064;17.192;2022-09-13T08:09:08;99781.41;;;18.73;100.00
42951;BME280;28592;51.064;17.192;2022-09-13T08:11:54;99777.96;;;18.86;100.00
42951;BME280;28592;51.064;17.192;2022-09-13T08:14:40;99777.19;;;18.98;100.00
42951;BME280;28592;51.064;17.192;2022-09-13T08:17:26;99776.35;;;18.98;100.00
42951;BME280;28592;51.064;17.192;2022-09-13T08:20:11;99783.84;;;19.09;100.00
42951;BME280;28592;51.064;17.192;2022-09-13T08:22:58;99783.00;;;19.08;100.00
42951;BME280;28592;51.064;17.192;2022-09-13T08:25:43;99769.39;;;19.16;100.00
42951;BME280;28592;51.064;17.192;2022-09-13T08:28:31;99771.65;;;19.13;100.00
42951;BME280;28592;51.064;17.192;2022-09-13T08:31:17;99769.70;;;18.94;100.00
42951;BME280;28592;51.064;17.192;2022-09-13T08:34:09;99769.27;;;18.84;100.00
42951;BME280;28592;51.064;17.192;2022-09-13T08:36:56;99761.86;;;18.92;100.00
42951;BME280;28592;51.064;17.192;2022-09-13T08:39:45;99754.72;;;19.19;100.00
42951;BME280;28592;51.064;17.192;2022-09-13T08:45:27;99750.59;;;19.23;100.00
42951;BME280;28592;51.064;17.192;2022-09-13T08:48:15;99763.72;;;19.59;100.00
42951;BME280;28592;51.064;17.192;2022-09-13T08:51:05;99760.19;;;19.58;100.00
42951;BME280;28592;51.064;17.192;2022-09-13T08:53:52;99762.71;;;19.79;100.00
42951;BME280;28592;51.064;17.192;2022-09-13T08:59:49;99749.64;;;20.02;100.00
42951;BME280;28592;51.064;17.192;2022-09-13T09:14:38;99737.88;;;20.80;97.85
42951;BME280;28592;51.064;17.192;2022-09-13T09:17:33;99733.28;;;20.94;100.00
42951;BME280;28592;51.064;17.192;2022-09-13T09:23:20;99718.63;;;21.83;96.12
42951;BME280;28592;51.064;17.192;2022-09-13T09:38:22;99706.36;;;22.05;90.42
42951;BME280;28592;51.064;17.192;2022-09-13T09:41:14;99700.84;;;22.18;88.93
42951;BME280;28592;51.064;17.192;2022-09-13T09:47:03;99706.98;;;22.25;91.92
42951;BME280;28592;51.064;17.192;2022-09-13T09:49:58;99704.52;;;22.23;91.93
42951;BME280;28592;51.064;17.192;2022-09-13T09:53:02;99700.35;;;21.85;88.36
42951;BME280;28592;51.064;17.192;2022-09-13T09:58:49;99686.62;;;22.29;88.57
42951;BME280;28592;51.064;17.192;2022-09-13T10:01:36;99679.03;;;22.19;87.84
42951;BME280;28592;51.064;17.192;2022-09-13T10:04:24;99673.86;;;22.18;87.82
42951;BME280;28592;51.064;17.192;2022-09-13T10:13:20;99663.28;;;21.74;88.71
42951;BME280;28592;51.064;17.192;2022-09-13T10:16:04;99671.11;;;21.57;92.37
42951;BME280;28592;51.064;17.192;2022-09-13T10:18:51;99661.34;;;21.56;92.46
42951;BME280;28592;51.064;17.192;2022-09-13T10:21:36;99659.92;;;21.54;93.24
42951;BME280;28592;51.064;17.192;2022-09-13T10:24:21;99649.97;;;20.92;92.91
42951;BME280;28592;51.064;17.192;2022-09-13T10:30:04;99636.59;;;20.79;94.59
42951;BME280;28592;51.064;17.192;2022-09-13T10:32:59;99633.66;;;20.87;95.61
42951;BME280;28592;51.064;17.192;2022-09-13T10:35:47;99628.17;;;21.07;95.92
42951;BME280;28592;51.064;17.192;2022-09-13T10:38:41;99630.46;;;21.03;96.52
42951;BME280;28592;51.064;17.192;2022-09-13T10:41:30;99625.76;;;21.23;99.20
42951;BME280;28592;51.064;17.192;2022-09-13T10:44:43;99624.92;;;21.23;99.11
42951;BME280;28592;51.064;17.192;2022-09-13T10:47:32;99631.12;;;20.92;100.00
42951;BME280;28592;51.064;17.192;2022-09-13T11:14:03;99603.98;;;22.10;97.56
42951;BME280;28592;51.064;17.192;2022-09-13T11:43:46;99580.09;;;22.43;87.13
42951;BME280;28592;51.064;17.192;2022-09-13T11:52:43;99577.58;;;22.78;89.50
42951;BME280;28592;51.064;17.192;2022-09-13T11:58:31;99573.63;;;22.92;86.27
42951;BME280;28592;51.064;17.192;2022-09-13T12:01:28;99565.31;;;22.64;82.66
42951;BME280;28592;51.064;17.192;2022-09-13T12:07:39;99569.64;;;23.06;84.35
42951;BME280;28592;51.064;17.192;2022-09-13T12:10:22;99568.84;;;23.05;84.38
42951;BME280;28592;51.064;17.192;2022-09-13T12:13:18;99567.88;;;22.59;81.37
42951;BME280;28592;51.064;17.192;2022-09-13T12:16:09;99561.67;;;22.58;81.33
42951;BME280;28592;51.064;17.192;2022-09-13T12:19:02;99562.48;;;22.40;81.91
42951;BME280;28592;51.064;17.192;2022-09-13T12:21:52;99560.93;;;22.33;84.70
42951;BME280;28592;51.064;17.192;2022-09-13T12:24:44;99563.09;;;22.42;83.06
42951;BME280;28592;51.064;17.192;2022-09-13T12:33:25;99547.70;;;22.13;81.95
42951;BME280;28592;51.064;17.192;2022-09-13T12:42:18;99531.09;;;22.28;81.78
42951;BME280;28592;51.064;17.192;2022-09-13T13:03:05;99523.19;;;22.15;86.40
42951;BME280;28592;51.064;17.192;2022-09-13T13:06:09;99509.88;;;21.84;86.22
42951;BME280;28592;51.064;17.192;2022-09-13T13:08:57;99500.44;;;21.75;88.20
42951;BME280;28592;51.064;17.192;2022-09-13T13:11:45;99511.44;;;21.91;88.02
42951;BME280;28592;51.064;17.192;2022-09-13T13:17:38;99523.27;;;22.08;86.57
42951;BME280;28592;51.064;17.192;2022-09-13T13:23:27;99514.74;;;21.93;89.39
42951;BME280;28592;51.064;17.192;2022-09-13T13:32:10;99504.78;;;21.94;89.36
42951;BME280;28592;51.064;17.192;2022-09-13T13:35:10;99499.67;;;21.68;89.39
42951;BME280;28592;51.064;17.192;2022-09-13T13:37:50;99498.35;;;21.77;90.55
42951;BME280;28592;51.064;17.192;2022-09-13T13:40:37;99497.64;;;21.99;87.04
42951;BME280;28592;51.064;17.192;2022-09-13T13:43:29;99494.11;;;21.99;88.96
42951;BME280;28592;51.064;17.192;2022-09-13T13:46:25;99492.33;;;21.93;87.05
42951;BME280;28592;51.064;17.192;2022-09-13T14:01:13;99474.20;;;22.00;88.17
42951;BME280;28592;51.064;17.192;2022-09-13T14:07:11;99465.73;;;22.26;90.44
42951;BME280;28592;51.064;17.192;2022-09-13T14:10:06;99472.75;;;22.15;88.64
42951;BME280;28592;51.064;17.192;2022-09-13T14:13:05;99460.19;;;21.91;90.06
42951;BME280;28592;51.064;17.192;2022-09-13T14:24:46;99441.53;;;21.90;90.78
42951;BME280;28592;51.064;17.192;2022-09-13T14:27:35;99434.83;;;22.10;90.31
42951;BME280;28592;51.064;17.192;2022-09-13T14:30:24;99431.83;;;22.30;91.59
42951;BME280;28592;51.064;17.192;2022-09-13T14:33:25;99430.99;;;22.29;89.83
42951;BME280;28592;51.064;17.192;2022-09-13T14:36:20;99434.98;;;22.27;93.76
42951;BME280;28592;51.064;17.192;2022-09-13T14:39:08;99433.36;;;22.26;93.78
42951;BME280;28592;51.064;17.192;2022-09-13T14:42:02;99440.91;;;22.06;88.50
42951;BME280;28592;51.064;17.192;2022-09-13T14:44:56;99447.34;;;22.05;88.91
42951;BME280;28592;51.064;17.192;2022-09-13T14:47:57;99441.53;;;21.90;90.88
42951;BME280;28592;51.064;17.192;2022-09-13T14:50:47;99440.91;;;22.06;89.88
42951;BME280;28592;51.064;17.192;2022-09-13T14:53:39;99431.52;;;22.08;89.72
42951;BME280;28592;51.064;17.192;2022-09-13T14:56:33;99419.12;;;22.19;89.72
42951;BME280;28592;51.064;17.192;2022-09-13T14:59:28;99422.02;;;22.06;91.49
42951;BME280;28592;51.064;17.192;2022-09-13T15:02:21;99417.66;;;22.05;93.48
42951;BME280;28592;51.064;17.192;2022-09-13T15:05:12;99423.28;;;22.03;93.27
42951;BME280;28592;51.064;17.192;2022-09-13T15:07:59;99414.90;;;21.82;95.82
42951;BME280;28592;51.064;17.192;2022-09-13T15:10:49;99416.77;;;21.81;95.95
42951;BME280;28592;51.064;17.192;2022-09-13T15:13:35;99409.84;;;21.85;96.52
42951;BME280;28592;51.064;17.192;2022-09-13T15:16:29;99409.96;;;21.79;96.50
42951;BME280;28592;51.064;17.192;2022-09-13T15:19:28;99420.30;;;21.82;94.58
42951;BME280;28592;51.064;17.192;2022-09-13T15:22:23;99409.62;;;21.87;96.36
42951;BME280;28592;51.064;17.192;2022-09-13T15:25:20;99413.18;;;21.99;95.80
42951;BME280;28592;51.064;17.192;2022-09-13T15:31:07;99414.84;;;22.00;94.46
42951;BME280;28592;51.064;17.192;2022-09-13T15:37:06;99406.37;;;21.96;92.67
42951;BME280;28592;51.064;17.192;2022-09-13T15:42:51;99394.48;;;22.57;92.06
42951;BME280;28592;51.064;17.192;2022-09-13T15:45:36;99394.71;;;22.55;92.17
42951;BME280;28592;51.064;17.192;2022-09-13T15:48:30;99387.64;;;22.54;94.30
42951;BME280;28592;51.064;17.192;2022-09-13T15:51:19;99380.64;;;22.23;91.94
42951;BME280;28592;51.064;17.192;2022-09-13T15:54:11;99393.84;;;22.02;94.95
42951;BME280;28592;51.064;17.192;2022-09-13T15:56:58;99391.37;;;22.00;94.82
42951;BME280;28592;51.064;17.192;2022-09-13T15:59:43;99384.86;;;21.78;90.27
42951;BME280;28592;51.064;17.192;2022-09-13T16:02:39;99377.83;;;21.77;90.20
42951;BME280;28592;51.064;17.192;2022-09-13T16:05:29;99382.53;;;21.82;90.69
42951;BME280;28592;51.064;17.192;2022-09-13T16:08:18;99383.27;;;21.71;91.07
42951;BME280;28592;51.064;17.192;2022-09-13T16:11:03;99393.21;;;21.41;91.52
42951;BME280;28592;51.064;17.192;2022-09-13T16:13:52;99387.66;;;21.36;91.96
42951;BME280;28592;51.064;17.192;2022-09-13T16:16:39;99388.80;;;21.28;92.23
42951;BME280;28592;51.064;17.192;2022-09-13T16:19:27;99386.03;;;21.35;93.15
42951;BME280;28592;51.064;17.192;2022-09-13T16:22:13;99381.66;;;21.34;93.29
42951;BME280;28592;51.064;17.192;2022-09-13T16:25:01;99363.33;;;21.24;93.95
42951;BME280;28592;51.064;17.192;2022-09-13T16:27:51;99378.52;;;21.37;96.12
42951;BME280;28592;51.064;17.192;2022-09-13T16:30:50;99377.33;;;21.33;96.42
42951;BME280;28592;51.064;17.192;2022-09-13T16:33:36;99382.13;;;21.13;97.21
42951;BME280;28592;51.064;17.192;2022-09-13T16:36:22;99377.41;;;21.08;97.83
42951;BME280;28592;51.064;17.192;2022-09-13T16:39:07;99374.94;;;21.07;97.80
42951;BME280;28592;51.064;17.192;2022-09-13T16:41:58;99378.63;;;20.87;98.37
42951;BME280;28592;51.064;17.192;2022-09-13T16:44:44;99376.98;;;20.86;98.33
42951;BME280;28592;51.064;17.192;2022-09-13T16:47:32;99378.82;;;20.68;98.96
42951;BME280;28592;51.064;17.192;2022-09-13T16:50:17;99377.19;;;20.67;98.71
42951;BME280;28592;51.064;17.192;2022-09-13T16:53:03;99375.92;;;20.45;99.17
42951;BME280;28592;51.064;17.192;2022-09-13T16:55:48;99372.42;;;20.44;99.06
42951;BME280;28592;51.064;17.192;2022-09-13T16:58:39;99380.94;;;20.41;100.00
42951;BME280;28592;51.064;17.192;2022-09-13T17:01:26;99372.03;;;20.41;100.00
42951;BME280;28592;51.064;17.192;2022-09-13T17:04:12;99379.13;;;20.35;100.00
42951;BME280;28592;51.064;17.192;2022-09-13T17:06:58;99377.81;;;20.44;100.00
42951;BME280;28592;51.064;17.192;2022-09-13T17:09:52;99382.05;;;20.34;100.00
42951;BME280;28592;51.064;17.192;2022-09-13T17:12:38;99375.73;;;20.22;100.00
42951;BME280;28592;51.064;17.192;2022-09-13T17:15:26;99384.99;;;20.26;100.00
42951;BME280;28592;51.064;17.192;2022-09-13T17:18:11;99384.16;;;20.25;100.00
42951;BME280;28592;51.064;17.192;2022-09-13T17:21:04;99376.16;;;20.19;100.00
42951;BME280;28592;51.064;17.192;2022-09-13T17:23:52;99369.01;;;20.00;100.00
42951;BME280;28592;51.064;17.192;2022-09-13T17:26:41;99381.80;;;20.04;100.00
42951;BME280;28592;51.064;17.192;2022-09-13T17:29:30;99380.17;;;20.03;100.00
42951;BME280;28592;51.064;17.192;2022-09-13T17:32:18;99372.86;;;20.17;100.00
42951;BME280;28592;51.064;17.192;2022-09-13T17:35:07;99376.37;;;20.17;100.00
42951;BME280;28592;51.064;17.192;2022-09-13T17:37:58;99364.39;;;20.13;100.00
42951;BME280;28592;51.064;17.192;2022-09-13T17:43:52;99372.25;;;20.08;100.00
42951;BME280;28592;51.064;17.192;2022-09-13T17:46:43;99372.86;;;20.10;100.00
42951;BME280;28592;51.064;17.192;2022-09-13T17:49:38;99376.42;;;20.04;100.00
42951;BME280;28592;51.064;17.192;2022-09-13T17:52:33;99375.22;;;20.00;100.00
42951;BME280;28592;51.064;17.192;2022-09-13T17:55:18;99381.10;;;19.84;100.00
42951;BME280;28592;51.064;17.192;2022-09-13T17:58:04;99372.48;;;19.76;100.00
42951;BME280;28592;51.064;17.192;2022-09-13T18:01:05;99367.10;;;19.76;100.00
42951;BME280;28592;51.064;17.192;2022-09-13T18:03:49;99370.81;;;19.75;100.00
42951;BME280;28592;51.064;17.192;2022-09-13T18:06:36;99369.61;;;19.71;100.00
42951;BME280;28592;51.064;17.192;2022-09-13T18:09:27;99371.67;;;19.69;100.00
42951;BME280;28592;51.064;17.192;2022-09-13T18:12:15;99373.39;;;19.57;100.00
42951;BME280;28592;51.064;17.192;2022-09-13T18:15:00;99386.45;;;19.53;100.00
42951;BME280;28592;51.064;17.192;2022-09-13T18:17:47;99382.30;;;19.57;100.00
42951;BME280;28592;51.064;17.192;2022-09-13T18:20:43;99370.70;;;19.57;100.00
42951;BME280;28592;51.064;17.192;2022-09-13T18:23:31;99379.37;;;19.65;100.00
42951;BME280;28592;51.064;17.192;2022-09-13T18:26:20;99362.27;;;19.53;100.00
42951;BME280;28592;51.064;17.192;2022-09-13T18:29:09;99380.81;;;19.61;100.00
42951;BME280;28592;51.064;17.192;2022-09-13T18:31:55;99386.27;;;19.48;100.00